createdAt,value
2018-07-14T00:00:59.449Z,87.08
2018-07-14T00:03:33.301Z,85.90
2018-07-14T00:06:07.334Z,86.39
2018-07-14T00:08:41.220Z,86.87
2018-07-14T00:11:15.181Z,87.52
2018-07-14T00:13:49.195Z,86.97
2018-07-14T00:16:24.643Z,86.03
2018-07-14T00:18:58.664Z,85.44
2018-07-14T00:21:32.720Z,83.98
2018-07-14T00:24:06.625Z,83.13
2018-07-14T00:26:40.667Z,82.16
2018-07-14T00:29:14.567Z,82.29
2018-07-14T00:31:48.733Z,82.17
2018-07-14T00:34:22.756Z,82.00
2018-07-14T00:36:56.645Z,81.89
2018-07-14T00:39:30.586Z,82.10
2018-07-14T00:42:04.555Z,81.94
2018-07-14T00:44:39.356Z,82.91
2018-07-14T00:47:13.372Z,82.58
2018-07-14T00:49:47.302Z,82.74
2018-07-14T00:52:21.405Z,82.73
2018-07-14T00:54:55.455Z,82.41
2018-07-14T00:57:29.537Z,82.91
2018-07-14T01:00:03.665Z,82.99
2018-07-14T01:02:37.800Z,83.51
2018-07-14T01:05:11.689Z,83.27
2018-07-14T01:07:45.765Z,83.32
2018-07-14T01:10:19.632Z,83.42
2018-07-14T01:12:53.634Z,84.29
2018-07-14T01:15:27.625Z,84.54
2018-07-14T01:18:02.705Z,84.49
2018-07-14T01:20:36.712Z,85.05
2018-07-14T01:23:10.805Z,85.47
2018-07-14T01:25:44.719Z,84.85
2018-07-14T01:28:18.712Z,86.78
2018-07-14T01:30:52.675Z,86.94
2018-07-14T01:33:26.714Z,87.11
2018-07-14T01:36:00.874Z,86.09
2018-07-14T01:38:35.053Z,85.44
2018-07-14T01:41:09.099Z,85.97
2018-07-14T01:43:43.084Z,87.48
2018-07-14T01:46:17.094Z,86.84
2018-07-14T01:48:51.211Z,85.58
2018-07-14T01:51:25.438Z,86.17
2018-07-14T01:53:59.387Z,86.33
2018-07-14T01:56:33.320Z,86.41
2018-07-14T01:59:07.681Z,86.24
2018-07-14T02:01:41.566Z,85.19
2018-07-14T02:04:15.561Z,85.61
2018-07-14T02:06:49.480Z,86.61
2018-07-14T02:09:23.558Z,87.76
2018-07-14T02:11:57.360Z,88.61
2018-07-14T02:14:31.565Z,87.20
2018-07-14T02:17:05.408Z,88.75
2018-07-14T02:19:39.337Z,89.99
2018-07-14T02:22:13.243Z,89.90
2018-07-14T02:24:47.255Z,89.50
2018-07-14T02:27:21.247Z,89.90
2018-07-14T02:29:55.289Z,89.62
2018-07-14T02:32:29.160Z,87.13
2018-07-14T02:35:03.280Z,87.22
2018-07-14T02:37:37.176Z,86.91
2018-07-14T02:40:11.306Z,86.92
2018-07-14T02:42:45.296Z,88.19
2018-07-14T02:45:19.360Z,88.00
2018-07-14T02:47:53.190Z,87.87
2018-07-14T02:50:27.214Z,87.36
2018-07-14T02:53:01.329Z,86.51
2018-07-14T02:55:35.385Z,86.88
2018-07-14T02:58:09.285Z,85.86
2018-07-14T03:00:43.422Z,85.71
2018-07-14T03:03:17.396Z,85.46
2018-07-14T03:05:51.525Z,84.71
2018-07-14T03:08:25.489Z,82.85
2018-07-14T03:10:59.521Z,83.09
2018-07-14T03:13:33.524Z,82.36
2018-07-14T03:16:07.489Z,82.68
2018-07-14T03:18:41.349Z,81.25
2018-07-14T03:21:15.580Z,79.78
2018-07-14T03:23:49.744Z,82.27
2018-07-14T03:26:23.676Z,83.10
2018-07-14T03:28:57.608Z,83.93
2018-07-14T03:31:31.498Z,84.11
2018-07-14T03:34:05.435Z,83.91
2018-07-14T03:36:39.374Z,83.50
2018-07-14T03:39:13.408Z,83.27
2018-07-14T03:41:47.419Z,82.96
2018-07-14T03:44:21.305Z,81.86
2018-07-14T03:46:55.312Z,84.15
2018-07-14T03:49:29.232Z,85.82
2018-07-14T03:52:03.226Z,85.47
2018-07-14T03:54:37.258Z,84.46
2018-07-14T03:57:11.300Z,83.65
2018-07-14T03:59:45.488Z,82.91
2018-07-14T04:02:19.590Z,82.18
2018-07-14T04:04:53.628Z,81.09
2018-07-14T04:07:27.741Z,81.37
2018-07-14T04:10:01.955Z,82.75
2018-07-14T04:12:35.916Z,83.52
2018-07-14T04:15:09.764Z,84.19
2018-07-14T04:17:43.789Z,82.96
2018-07-14T04:20:17.778Z,80.86
2018-07-14T04:22:51.955Z,78.99
2018-07-14T04:25:25.933Z,77.29
2018-07-14T04:28:00.716Z,77.54
2018-07-14T04:30:34.660Z,76.13
2018-07-14T04:33:08.658Z,75.74
2018-07-14T04:35:42.573Z,75.04
2018-07-14T04:38:16.466Z,74.33
2018-07-14T04:40:50.329Z,73.66
2018-07-14T04:43:24.366Z,73.42
2018-07-14T04:45:58.398Z,73.63
2018-07-14T04:48:32.226Z,71.65
2018-07-14T04:51:06.200Z,71.76
2018-07-14T04:53:40.297Z,71.80
2018-07-14T04:56:14.235Z,71.98
2018-07-14T04:58:48.401Z,70.67
2018-07-14T05:01:22.431Z,70.81
2018-07-14T05:03:56.532Z,69.47
2018-07-14T05:06:30.656Z,69.47
2018-07-14T05:09:05.558Z,70.68
2018-07-14T05:11:40.350Z,70.32
2018-07-14T05:14:14.490Z,71.47
2018-07-14T05:16:48.530Z,71.76
2018-07-14T05:19:22.537Z,72.65
2018-07-14T05:21:56.436Z,71.69
2018-07-14T05:24:30.569Z,69.84
2018-07-14T05:27:04.553Z,70.26
2018-07-14T05:29:38.645Z,68.09
2018-07-14T05:32:12.484Z,67.68
2018-07-14T05:34:46.384Z,67.95
2018-07-14T05:37:20.385Z,68.30
2018-07-14T05:39:54.392Z,66.46
2018-07-14T05:42:28.501Z,67.05
2018-07-14T05:45:02.598Z,66.67
2018-07-14T05:47:37.437Z,65.28
2018-07-14T05:50:11.354Z,65.01
2018-07-14T05:52:45.318Z,63.40
2018-07-14T05:55:19.251Z,64.07
2018-07-14T05:57:53.161Z,61.22
2018-07-14T06:00:27.209Z,61.34
2018-07-14T06:03:01.194Z,60.40
2018-07-14T06:05:35.237Z,59.74
2018-07-14T06:08:03.204Z,59.76
2018-07-14T06:10:31.130Z,60.20
2018-07-14T06:12:59.062Z,59.94
2018-07-14T06:15:26.937Z,60.25
2018-07-14T06:17:54.857Z,59.81
2018-07-14T06:20:22.840Z,59.50
2018-07-14T06:22:51.300Z,57.69
2018-07-14T06:25:19.267Z,58.06
2018-07-14T06:27:47.211Z,57.26
2018-07-14T06:30:15.123Z,57.76
2018-07-14T06:32:43.351Z,56.39
2018-07-14T06:35:14.223Z,56.72
2018-07-14T06:37:42.680Z,56.36
2018-07-14T06:40:10.605Z,57.22
2018-07-14T06:42:38.585Z,58.21
2018-07-14T06:45:06.609Z,55.85
2018-07-14T06:47:34.674Z,55.13
2018-07-14T06:50:02.697Z,55.54
2018-07-14T06:52:30.643Z,53.92
2018-07-14T06:54:58.739Z,54.28
2018-07-14T06:57:26.863Z,53.97
2018-07-14T06:59:55.395Z,52.31
2018-07-14T07:02:23.440Z,52.11
2018-07-14T07:04:51.966Z,51.13
2018-07-14T07:07:19.921Z,51.61
2018-07-14T07:09:47.825Z,51.83
2018-07-14T07:12:15.866Z,51.32
2018-07-14T07:14:43.744Z,50.61
2018-07-14T07:17:11.633Z,49.87
2018-07-14T07:19:39.585Z,48.08
2018-07-14T07:22:07.496Z,47.98
2018-07-14T07:24:35.396Z,49.17
2018-07-14T07:27:03.659Z,47.24
2018-07-14T07:29:31.579Z,47.40
2018-07-14T07:31:59.680Z,46.04
2018-07-14T07:34:27.631Z,46.79
2018-07-14T07:36:56.557Z,45.30
2018-07-14T07:39:24.541Z,45.88
2018-07-14T07:41:52.470Z,45.96
2018-07-14T07:44:20.345Z,43.96
2018-07-14T07:46:48.417Z,44.66
2018-07-14T07:49:16.379Z,42.58
2018-07-14T07:51:44.285Z,43.89
2018-07-14T07:54:12.240Z,44.45
2018-07-14T07:56:40.137Z,45.13
2018-07-14T07:59:08.029Z,44.47
2018-07-14T08:01:35.928Z,43.96
2018-07-14T08:04:03.850Z,43.67
2018-07-14T08:06:31.779Z,42.83
2018-07-14T08:08:59.795Z,44.47
2018-07-14T08:11:27.781Z,43.37
2018-07-14T08:13:56.318Z,44.79
2018-07-14T08:16:24.674Z,44.24
2018-07-14T08:18:52.597Z,44.24
2018-07-14T08:21:20.544Z,44.32
2018-07-14T08:23:48.402Z,44.91
2018-07-14T08:26:16.321Z,45.88
2018-07-14T08:28:44.202Z,46.32
2018-07-14T08:31:12.126Z,45.10
2018-07-14T08:33:40.100Z,44.53
2018-07-14T08:36:08.056Z,44.55
2018-07-14T08:38:36.050Z,44.06
2018-07-14T08:41:04.117Z,43.80
2018-07-14T08:43:32.039Z,44.37
2018-07-14T08:45:59.939Z,44.52
2018-07-14T08:48:27.883Z,47.08
2018-07-14T08:50:55.765Z,45.46
2018-07-14T08:53:23.676Z,46.41
2018-07-14T08:55:54.678Z,46.07
2018-07-14T08:58:27.103Z,45.48
2018-07-14T09:00:55.308Z,44.88
2018-07-14T09:03:23.566Z,42.70
2018-07-14T09:05:51.570Z,43.68
2018-07-14T09:08:19.466Z,43.94
2018-07-14T09:10:47.448Z,46.02
2018-07-14T09:13:15.329Z,44.91
2018-07-14T09:15:43.274Z,44.74
2018-07-14T09:18:11.232Z,42.76
2018-07-14T09:20:39.141Z,43.01
2018-07-14T09:23:07.109Z,41.06
2018-07-14T09:25:35.097Z,43.57
2018-07-14T09:31:08.723Z,44.18
2018-07-14T09:33:37.611Z,43.15
2018-07-14T09:36:06.186Z,42.58
2018-07-14T09:38:34.211Z,41.50
2018-07-14T09:41:02.105Z,40.83
2018-07-14T09:43:30.457Z,41.78
2018-07-14T09:46:03.701Z,39.44
2018-07-14T09:48:31.641Z,38.55
2018-07-14T09:51:01.250Z,40.81
2018-07-14T09:53:29.147Z,39.69
2018-07-14T09:55:57.189Z,39.71
2018-07-14T09:58:25.070Z,39.77
2018-07-14T10:00:58.617Z,41.20
2018-07-14T10:03:26.562Z,40.30
2018-07-14T10:05:54.400Z,40.80
2018-07-14T10:08:22.312Z,41.79
2018-07-14T10:10:50.265Z,41.05
2018-07-14T10:13:18.202Z,39.49
2018-07-14T10:15:46.153Z,39.37
2018-07-14T10:18:14.300Z,39.33
2018-07-14T10:20:42.177Z,38.82
2018-07-14T10:23:10.499Z,38.65
2018-07-14T10:25:38.553Z,38.04
2018-07-14T10:28:06.446Z,38.30
2018-07-14T10:30:34.383Z,38.23
2018-07-14T10:33:02.347Z,38.47
2018-07-14T10:35:30.241Z,38.69
2018-07-14T10:37:58.157Z,38.55
2018-07-14T10:40:26.074Z,37.20
2018-07-14T10:42:53.954Z,39.32
2018-07-14T10:45:21.986Z,39.64
2018-07-14T10:47:49.877Z,40.16
2018-07-14T10:50:17.784Z,40.02
2018-07-14T10:52:45.774Z,39.64
2018-07-14T10:55:13.822Z,40.21
2018-07-14T10:57:42.416Z,39.99
2018-07-14T11:00:10.515Z,39.97
2018-07-14T11:02:38.763Z,37.98
2018-07-14T11:05:07.292Z,36.59
2018-07-14T11:07:35.233Z,37.91
2018-07-14T11:10:03.546Z,38.61
2018-07-14T11:12:33.589Z,37.86
2018-07-14T11:15:02.638Z,38.90
2018-07-14T11:17:30.533Z,37.66
2018-07-14T11:19:58.589Z,38.50
2018-07-14T11:22:26.553Z,37.60
2018-07-14T11:24:54.475Z,37.71
2018-07-14T11:27:22.376Z,38.20
2018-07-14T11:29:50.364Z,37.68
2018-07-14T11:32:18.240Z,34.92
2018-07-14T11:34:46.128Z,35.22
2018-07-14T11:37:14.037Z,34.52
2018-07-14T11:39:42.065Z,35.39
2018-07-14T11:42:09.990Z,36.26
2018-07-14T11:44:37.902Z,35.14
2018-07-14T11:47:05.814Z,35.67
2018-07-14T11:49:33.720Z,35.87
2018-07-14T11:52:01.777Z,37.62
2018-07-14T11:54:30.077Z,36.92
2018-07-14T11:56:58.131Z,37.67
2018-07-14T11:59:26.285Z,37.67
2018-07-14T12:01:54.200Z,36.15
2018-07-14T12:04:22.106Z,36.50
2018-07-14T12:06:50.018Z,35.96
2018-07-14T12:09:17.933Z,36.71
2018-07-14T12:11:45.801Z,35.93
2018-07-14T12:14:13.904Z,35.43
2018-07-14T12:16:41.859Z,36.00
2018-07-14T12:19:09.869Z,34.65
2018-07-14T12:21:37.809Z,35.72
2018-07-14T12:24:05.848Z,33.77
2018-07-14T12:26:33.762Z,34.59
2018-07-14T12:29:01.741Z,34.05
2018-07-14T12:31:29.620Z,33.41
2018-07-14T12:33:57.616Z,35.04
2018-07-14T12:36:25.616Z,35.82
2018-07-14T12:38:53.492Z,36.25
2018-07-14T12:41:21.396Z,35.45
2018-07-14T12:43:49.328Z,35.87
2018-07-14T12:46:17.231Z,34.65
2018-07-14T12:48:45.155Z,36.02
2018-07-14T12:51:13.060Z,34.31
2018-07-14T12:53:42.901Z,36.07
2018-07-14T12:56:10.805Z,34.99
2018-07-14T12:58:38.764Z,36.26
2018-07-14T13:01:07.102Z,36.39
2018-07-14T13:03:34.986Z,35.24
2018-07-14T13:06:02.908Z,34.96
2018-07-14T13:08:30.798Z,35.86
2018-07-14T13:10:58.664Z,36.29
2018-07-14T13:13:26.578Z,36.19
2018-07-14T13:15:54.549Z,34.35
2018-07-14T13:18:22.444Z,34.99
2018-07-14T13:20:50.414Z,36.88
2018-07-14T13:23:18.303Z,35.01
2018-07-14T13:25:46.380Z,34.07
2018-07-14T13:28:14.961Z,34.32
2018-07-14T13:30:42.844Z,34.91
2018-07-14T13:33:10.786Z,33.31
2018-07-14T13:35:38.734Z,34.08
2018-07-14T13:38:06.673Z,35.47
2018-07-14T13:40:34.579Z,33.97
2018-07-14T13:43:03.561Z,33.18
2018-07-14T13:45:31.494Z,31.99
2018-07-14T13:47:59.400Z,32.51
2018-07-14T13:50:27.362Z,30.39
2018-07-14T13:52:55.322Z,30.91
2018-07-14T13:55:23.233Z,32.79
2018-07-14T13:57:51.154Z,31.94
2018-07-14T14:00:19.039Z,32.50
2018-07-14T14:02:46.969Z,31.24
2018-07-14T14:05:14.945Z,31.18
2018-07-14T14:07:42.970Z,29.92
2018-07-14T14:10:10.916Z,31.10
2018-07-14T14:12:38.837Z,30.44
2018-07-14T14:15:07.053Z,30.30
2018-07-14T14:17:35.001Z,29.36
2018-07-14T14:20:03.120Z,32.19
2018-07-14T14:22:30.938Z,33.76
2018-07-14T14:24:58.824Z,33.64
2018-07-14T14:27:26.765Z,32.91
2018-07-14T14:29:54.633Z,32.03
2018-07-14T14:32:22.541Z,33.07
2018-07-14T14:34:50.497Z,32.34
2018-07-14T14:37:18.452Z,30.96
2018-07-14T14:39:46.365Z,30.10
2018-07-14T14:42:14.281Z,29.15
2018-07-14T14:44:42.304Z,28.43
2018-07-14T14:47:10.183Z,27.97
2018-07-14T14:49:38.141Z,28.35
2018-07-14T14:52:06.064Z,28.11
2018-07-14T14:54:34.094Z,27.69
2018-07-14T14:57:02.044Z,29.10
2018-07-14T14:59:30.085Z,32.47
2018-07-14T15:01:58.048Z,33.13
2018-07-14T15:04:25.973Z,31.37
2018-07-14T15:06:53.884Z,29.87
2018-07-14T15:09:21.864Z,30.41
2018-07-14T15:11:49.970Z,28.78
2018-07-14T15:14:17.881Z,28.79
2018-07-14T15:16:45.764Z,30.10
2018-07-14T15:19:13.813Z,29.57
2018-07-14T15:21:41.844Z,28.85
2018-07-14T15:24:09.731Z,27.26
2018-07-14T15:26:37.656Z,28.82
2018-07-14T15:29:06.543Z,27.82
2018-07-14T15:31:34.485Z,28.78
2018-07-14T15:34:02.456Z,30.01
2018-07-14T15:36:30.349Z,29.35
2018-07-14T15:38:58.333Z,29.60
2018-07-14T15:41:26.492Z,31.64
2018-07-14T15:43:54.796Z,32.48
2018-07-14T15:46:22.672Z,35.07
2018-07-14T15:48:50.603Z,35.93
2018-07-14T15:51:18.546Z,37.32
2018-07-14T15:53:46.438Z,38.16
2018-07-14T15:56:14.396Z,38.18
2018-07-14T15:58:42.298Z,37.16
2018-07-14T16:01:10.169Z,37.94
2018-07-14T16:03:38.088Z,38.23
2018-07-14T16:06:06.004Z,39.36
2018-07-14T16:08:33.872Z,39.42
2018-07-14T16:11:02.108Z,38.87
2018-07-14T16:13:30.230Z,39.87
2018-07-14T16:15:58.145Z,39.56
2018-07-14T16:18:26.094Z,39.44
2018-07-14T16:20:54.905Z,40.21
2018-07-14T16:23:22.837Z,40.83
2018-07-14T16:25:50.782Z,41.11
2018-07-14T16:28:18.718Z,40.71
2018-07-14T16:30:46.583Z,40.37
2018-07-14T16:33:14.570Z,40.68
2018-07-14T16:35:42.756Z,40.51
2018-07-14T16:38:10.842Z,40.67
2018-07-14T16:40:39.764Z,41.40
2018-07-14T16:43:10.802Z,41.65
2018-07-14T16:45:40.366Z,42.31
2018-07-14T16:48:12.076Z,41.73
2018-07-14T16:50:40.196Z,42.33
2018-07-14T16:53:08.326Z,42.37
2018-07-14T16:55:36.453Z,42.38
2018-07-14T16:58:04.414Z,42.98
2018-07-14T17:00:32.303Z,43.03
2018-07-14T17:03:00.265Z,43.51
2018-07-14T17:05:28.156Z,43.66
2018-07-14T17:07:56.064Z,43.80
2018-07-14T17:10:24.009Z,44.96
2018-07-14T17:12:51.915Z,43.71
2018-07-14T17:15:19.905Z,42.37
2018-07-14T17:17:47.843Z,44.06
2018-07-14T17:20:15.769Z,43.18
2018-07-14T17:22:44.565Z,42.60
2018-07-14T17:25:12.538Z,41.17
2018-07-14T17:27:40.427Z,39.71
2018-07-14T17:30:08.358Z,38.42
2018-07-14T17:32:36.305Z,38.22
2018-07-14T17:35:04.275Z,38.96
2018-07-14T17:37:34.192Z,40.09
2018-07-14T17:40:02.502Z,39.94
2018-07-14T17:42:30.548Z,42.29
2018-07-14T17:44:58.469Z,41.40
2018-07-14T17:47:26.464Z,40.13
2018-07-14T17:49:54.369Z,40.60
2018-07-14T17:52:22.330Z,40.78
2018-07-14T17:54:50.257Z,41.07
2018-07-14T17:57:18.191Z,39.61
2018-07-14T17:59:46.081Z,40.11
2018-07-14T18:02:14.089Z,39.65
2018-07-14T18:04:42.029Z,40.06
2018-07-14T18:07:09.943Z,39.95
2018-07-14T18:09:37.924Z,40.76
2018-07-14T18:12:05.825Z,41.32
2018-07-14T18:14:33.726Z,40.80
2018-07-14T18:17:01.653Z,41.32
2018-07-14T18:19:29.623Z,40.59
2018-07-14T18:21:57.553Z,41.52
2018-07-14T18:24:25.562Z,41.03
2018-07-14T18:26:53.469Z,41.31
2018-07-14T18:29:21.370Z,42.32
2018-07-14T18:31:49.370Z,41.89
2018-07-14T18:34:17.245Z,42.32
2018-07-14T18:36:45.158Z,42.65
2018-07-14T18:39:13.104Z,43.20
2018-07-14T18:41:41.036Z,43.96
2018-07-14T18:44:08.949Z,44.36
2018-07-14T18:46:36.896Z,45.21
2018-07-14T18:49:04.945Z,45.12
2018-07-14T18:51:32.850Z,47.58
2018-07-14T18:54:00.932Z,45.26
2018-07-14T18:56:28.863Z,45.85
2018-07-14T18:58:56.953Z,47.42
2018-07-14T19:01:24.905Z,47.76
2018-07-14T19:03:52.792Z,47.84
2018-07-14T19:06:20.698Z,49.07
2018-07-14T19:08:48.694Z,50.94
2018-07-14T19:11:16.622Z,51.61
2018-07-14T19:13:53.117Z,52.04
2018-07-14T19:16:21.980Z,51.78
2018-07-14T19:18:50.454Z,52.34
2018-07-14T19:21:22.208Z,53.10
2018-07-14T19:23:54.336Z,53.32
2018-07-14T19:26:27.185Z,51.74
2018-07-14T19:28:58.451Z,52.97
2018-07-14T19:31:26.622Z,53.79
2018-07-14T19:33:54.914Z,53.56
2018-07-14T19:36:23.820Z,52.80
2018-07-14T19:38:51.839Z,54.78
2018-07-14T19:41:20.007Z,54.88
2018-07-14T19:43:48.630Z,54.23
2018-07-14T19:46:16.677Z,55.90
2018-07-14T19:48:44.897Z,56.22
2018-07-14T19:51:13.186Z,56.57
2018-07-14T19:53:41.875Z,56.13
2018-07-14T19:56:10.089Z,57.06
2018-07-14T19:58:38.213Z,57.07
2018-07-14T20:01:12.485Z,58.46
2018-07-14T20:03:46.884Z,57.06
2018-07-14T20:06:21.213Z,57.18
2018-07-14T20:08:55.545Z,57.44
2018-07-14T20:11:30.184Z,55.94
2018-07-14T20:14:04.517Z,56.01
2018-07-14T20:16:38.761Z,55.53
2018-07-14T20:19:14.009Z,56.98
2018-07-14T20:21:48.469Z,57.78
2018-07-14T20:24:22.758Z,58.81
2018-07-14T20:27:02.185Z,60.70
2018-07-14T20:29:36.399Z,62.81
2018-07-14T20:32:10.641Z,65.16
2018-07-14T20:34:45.511Z,65.04
2018-07-14T20:37:19.682Z,63.97
2018-07-14T20:39:53.659Z,63.61
2018-07-14T20:42:27.880Z,63.28
2018-07-14T20:45:01.933Z,63.07
2018-07-14T20:47:35.885Z,63.77
2018-07-14T20:50:09.961Z,64.04
2018-07-14T20:52:43.939Z,63.16
2018-07-14T20:55:17.897Z,63.40
2018-07-14T20:57:51.893Z,66.05
2018-07-14T21:00:25.971Z,66.80
2018-07-14T21:02:59.932Z,67.71
2018-07-14T21:05:33.933Z,66.41
2018-07-14T21:08:07.947Z,66.21
2018-07-14T21:10:41.888Z,66.61
2018-07-14T21:13:15.969Z,65.97
2018-07-14T21:15:49.904Z,68.89
2018-07-14T21:18:23.940Z,68.37
2018-07-14T21:20:58.149Z,67.03
2018-07-14T21:23:32.279Z,66.17
2018-07-14T21:26:06.485Z,69.78
2018-07-14T21:28:40.828Z,69.80
2018-07-14T21:31:14.763Z,70.47
2018-07-14T21:33:48.763Z,69.43
2018-07-14T21:36:22.654Z,69.38
2018-07-14T21:38:56.658Z,69.19
2018-07-14T21:41:30.697Z,69.09
2018-07-14T21:44:04.784Z,68.47
2018-07-14T21:46:38.753Z,68.39
2018-07-14T21:49:12.733Z,67.22
2018-07-14T21:51:47.021Z,68.37
2018-07-14T21:54:21.081Z,67.70
2018-07-14T21:56:55.058Z,68.19
2018-07-14T21:59:29.070Z,68.86
2018-07-14T22:02:04.523Z,69.99
2018-07-14T22:04:38.621Z,71.33
2018-07-14T22:07:12.887Z,72.64
2018-07-14T22:09:47.070Z,73.23
2018-07-14T22:12:21.149Z,72.65
2018-07-14T22:14:55.278Z,71.87
2018-07-14T22:17:29.337Z,71.25
2018-07-14T22:20:03.450Z,70.74
2018-07-14T22:22:37.528Z,71.06
2018-07-14T22:25:11.659Z,70.87
2018-07-14T22:27:46.418Z,70.08
2018-07-14T22:30:20.589Z,69.99
2018-07-14T22:32:54.774Z,69.53
2018-07-14T22:35:28.713Z,69.38
2018-07-14T22:38:02.640Z,69.42
2018-07-14T22:40:36.637Z,69.40
2018-07-14T22:43:10.565Z,69.45
2018-07-14T22:45:44.748Z,69.43
2018-07-14T22:48:18.793Z,69.45
2018-07-14T22:50:52.836Z,70.04
2018-07-14T22:53:26.893Z,70.48
2018-07-14T22:56:00.864Z,71.58
2018-07-14T22:58:34.834Z,73.59
2018-07-14T23:01:09.027Z,75.74
2018-07-14T23:03:43.015Z,78.27
2018-07-14T23:06:16.995Z,77.41
2018-07-14T23:08:50.952Z,77.71
2018-07-14T23:11:25.068Z,77.01
2018-07-14T23:13:59.005Z,77.83
2018-07-14T23:16:36.669Z,76.85
2018-07-14T23:19:10.694Z,75.54
2018-07-14T23:21:44.749Z,74.51
2018-07-14T23:24:18.623Z,74.89
2018-07-14T23:26:52.636Z,76.29
2018-07-14T23:29:26.660Z,77.37
2018-07-14T23:32:00.779Z,78.52
2018-07-14T23:34:34.878Z,78.29
2018-07-14T23:37:08.933Z,79.05
2018-07-14T23:39:42.875Z,78.08
2018-07-14T23:42:16.891Z,77.32
2018-07-14T23:44:51.082Z,76.92
2018-07-14T23:47:25.048Z,76.16
2018-07-14T23:49:59.019Z,75.53
2018-07-14T23:52:33.056Z,74.86
2018-07-14T23:55:07.098Z,75.70
2018-07-14T23:57:41.230Z,75.42
